Time;durP1;ratioP1;P1;durP2;ratioP2;P2;SDS_P1;SDS_P2;PMS_P1;PMS_P2;Temp;Humidity;BMP_temperature;BMP_pressure;BME280_temperature;BME280_humidity;BME280_pressure;Samples;Min_cycle;Max_cycle;Signal;HPM_P1;HPM_P2
2021/09/04 00:02:16;;;;;;;4.13;3.58;;;20.00;72.20;;;;;;5155389;27;20501;-55
2021/09/04 00:04:42;;;;;;;4.57;3.75;;;19.90;72.10;;;;;;5155519;27;20046;-49
2021/09/04 00:07:08;;;;;;;4.40;3.40;;;20.00;72.20;;;;;;5155096;27;20498;-46
2021/09/04 00:09:35;;;;;;;5.88;3.95;;;19.90;72.20;;;;;;5135427;27;20052;-52
2021/09/04 00:12:02;;;;;;;4.38;3.72;;;19.90;72.80;;;;;;5136483;27;20046;-47
2021/09/04 00:14:28;;;;;;;4.25;3.42;;;19.90;72.20;;;;;;5155738;27;20081;-53
2021/09/04 00:16:53;;;;;;;4.00;3.30;;;19.90;72.20;;;;;;5154900;27;20054;-49
2021/09/04 00:19:19;;;;;;;4.63;3.80;;;19.90;72.20;;;;;;5136937;27;20046;-52
2021/09/04 00:21:45;;;;;;;4.20;3.58;;;19.90;72.20;;;;;;5155027;27;20043;-41
2021/09/04 00:24:10;;;;;;;3.65;3.17;;;19.90;72.20;;;;;;5155005;27;20523;-48
2021/09/04 00:26:36;;;;;;;4.40;3.63;;;19.90;72.20;;;;;;5155480;27;20039;-52
2021/09/04 00:29:02;;;;;;;4.80;3.90;;;20.00;72.20;;;;;;5154972;27;20042;-51
2021/09/04 00:31:28;;;;;;;4.68;3.50;;;19.90;72.20;;;;;;5134336;27;20391;-53
2021/09/04 00:33:54;;;;;;;4.85;3.90;;;19.90;72.20;;;;;;5142607;27;20046;-51
2021/09/04 00:36:19;;;;;;;3.78;3.25;;;19.90;72.20;;;;;;5155119;27;20435;-50
2021/09/04 00:38:45;;;;;;;4.40;3.75;;;19.90;72.20;;;;;;5154835;27;20031;-52
2021/09/04 00:41:11;;;;;;;4.75;3.75;;;19.90;72.20;;;;;;5154246;27;20054;-49
2021/09/04 00:43:37;;;;;;;5.22;3.70;;;19.90;72.20;;;;;;5154153;27;20035;-50
2021/09/04 00:46:07;;;;;;;4.60;3.65;;;19.90;72.20;;;;;;5154790;27;20039;-49
2021/09/04 00:48:33;;;;;;;5.07;3.88;;;19.90;72.20;;;;;;5135162;27;20099;-50
2021/09/04 00:50:58;;;;;;;4.75;3.72;;;19.90;72.20;;;;;;5154207;27;20038;-55
2021/09/04 00:53:24;;;;;;;3.88;3.45;;;19.90;72.20;;;;;;5154472;27;20071;-55
2021/09/04 00:55:49;;;;;;;4.43;3.40;;;19.90;72.20;;;;;;5153463;27;20074;-55
2021/09/04 00:58:15;;;;;;;3.83;3.38;;;19.90;72.20;;;;;;5154502;27;20050;-55
2021/09/04 01:00:41;;;;;;;4.50;3.42;;;19.90;72.20;;;;;;5154515;27;20168;-55
2021/09/04 01:03:07;;;;;;;3.78;3.38;;;19.90;72.20;;;;;;5135576;27;20340;-52
2021/09/04 01:05:33;;;;;;;5.65;3.58;;;20.00;72.30;;;;;;5153605;27;20042;-55
2021/09/04 01:07:58;;;;;;;4.15;3.13;;;19.90;72.20;;;;;;5153940;27;20115;-55
2021/09/04 01:10:26;;;;;;;3.95;3.10;;;19.90;72.20;;;;;;5153167;27;20039;-47
2021/09/04 01:12:52;;;;;;;3.88;3.28;;;19.90;72.20;;;;;;5152894;27;20034;-55
2021/09/04 01:15:19;;;;;;;4.38;3.45;;;19.90;72.20;;;;;;5153742;27;20562;-49
2021/09/04 01:17:45;;;;;;;5.28;3.67;;;19.80;72.20;;;;;;5134139;27;20062;-55
2021/09/04 01:20:11;;;;;;;3.35;3.03;;;19.90;72.90;;;;;;5153835;27;20045;-51
2021/09/04 01:22:37;;;;;;;3.60;3.22;;;19.90;72.20;;;;;;5153918;27;20117;-51
2021/09/04 01:25:08;;;;;;;3.88;3.30;;;19.90;72.20;;;;;;5153754;27;20038;-53
2021/09/04 01:27:35;;;;;;;3.13;2.83;;;19.90;72.20;;;;;;5153748;27;20116;-46
2021/09/04 01:30:03;;;;;;;5.15;3.70;;;19.90;72.20;;;;;;5153545;27;20051;-55
2021/09/04 01:32:29;;;;;;;4.60;3.65;;;19.90;72.20;;;;;;5153545;27;20047;-50
2021/09/04 01:35:01;;;;;;;5.30;3.60;;;19.90;72.20;;;;;;5153748;27;20503;-53
2021/09/04 01:37:27;;;;;;;4.30;3.50;;;19.90;72.20;;;;;;5148283;27;20513;-53
2021/09/04 01:39:52;;;;;;;4.93;3.30;;;19.90;72.20;;;;;;5152660;27;20035;-53
2021/09/04 01:42:18;;;;;;;4.63;3.40;;;19.80;72.20;;;;;;5153611;27;20031;-55
2021/09/04 01:44:43;;;;;;;3.78;3.17;;;19.90;72.30;;;;;;5152802;27;20085;-55
2021/09/04 01:47:09;;;;;;;3.95;3.05;;;19.90;72.90;;;;;;5152746;27;20038;-53
2021/09/04 01:49:36;;;;;;;4.07;3.55;;;19.90;72.20;;;;;;5152947;27;20038;-55
2021/09/04 01:52:02;;;;;;;3.88;3.13;;;19.90;72.20;;;;;;5153358;27;20045;-51
2021/09/04 01:54:28;;;;;;;4.28;3.13;;;19.90;72.20;;;;;;5153252;27;20054;-55
2021/09/04 01:56:53;;;;;;;3.78;2.92;;;19.90;72.20;;;;;;5153183;27;20498;-55
2021/09/04 01:59:19;;;;;;;5.00;3.40;;;19.90;72.20;;;;;;5152971;27;20046;-55
2021/09/04 02:01:45;;;;;;;3.85;3.17;;;19.90;72.20;;;;;;5152720;27;20087;-55
2021/09/04 02:04:10;;;;;;;3.90;3.10;;;19.90;72.30;;;;;;5153512;27;20159;-54
2021/09/04 02:06:36;;;;;;;3.50;2.92;;;19.90;72.20;;;;;;5133801;27;20038;-54
2021/09/04 02:09:01;;;;;;;3.30;2.85;;;19.90;72.20;;;;;;5153232;27;20146;-50
2021/09/04 02:11:27;;;;;;;3.67;3.00;;;19.90;72.20;;;;;;5153472;27;20031;-55
2021/09/04 02:13:53;;;;;;;4.20;3.05;;;19.90;72.20;;;;;;5153457;27;20042;-56
2021/09/04 02:16:18;;;;;;;3.95;3.13;;;19.90;72.30;;;;;;5151982;27;20054;-55
2021/09/04 02:18:44;;;;;;;3.50;3.10;;;19.90;72.30;;;;;;5153188;27;20043;-55
2021/09/04 02:21:10;;;;;;;3.30;2.80;;;19.90;72.30;;;;;;5152542;27;20167;-55
2021/09/04 02:23:35;;;;;;;3.78;2.97;;;19.90;72.30;;;;;;5156345;27;20039;-53
2021/09/04 02:26:01;;;;;;;3.22;2.83;;;19.90;72.30;;;;;;5157902;27;20047;-53
2021/09/04 02:28:26;;;;;;;3.95;3.25;;;19.90;72.30;;;;;;5157474;27;20045;-55
2021/09/04 02:30:52;;;;;;;3.70;3.03;;;19.90;72.30;;;;;;5156514;27;20390;-51
2021/09/04 02:33:18;;;;;;;3.97;2.80;;;19.90;72.30;;;;;;5157579;27;20479;-55
2021/09/04 02:35:43;;;;;;;3.67;3.22;;;19.90;72.30;;;;;;5157356;27;20122;-55
2021/09/04 02:38:09;;;;;;;3.42;2.90;;;19.90;72.30;;;;;;5157500;27;20471;-51
2021/09/04 02:40:35;;;;;;;3.00;2.70;;;19.90;72.30;;;;;;5157056;27;20041;-54
2021/09/04 02:43:01;;;;;;;4.00;3.00;;;19.90;72.30;;;;;;5157815;27;20049;-50
2021/09/04 02:45:27;;;;;;;3.75;3.17;;;19.90;72.30;;;;;;5156948;27;20390;-39
2021/09/04 02:47:52;;;;;;;3.50;3.00;;;19.90;72.30;;;;;;5155516;27;20562;-51
2021/09/04 02:50:19;;;;;;;3.92;3.00;;;19.90;72.30;;;;;;5156886;27;20381;-52
2021/09/04 02:52:44;;;;;;;4.07;2.95;;;19.90;72.30;;;;;;5138403;27;20038;-50
2021/09/04 02:55:10;;;;;;;3.88;2.72;;;19.80;72.30;;;;;;5157232;27;20470;-50
2021/09/04 02:57:36;;;;;;;3.30;2.78;;;19.90;72.30;;;;;;5157222;27;20483;-55
2021/09/04 03:00:02;;;;;;;3.50;2.65;;;19.80;72.30;;;;;;5157223;27;20039;-50
2021/09/04 03:02:28;;;;;;;3.58;2.95;;;19.80;72.30;;;;;;5155673;27;20170;-49
2021/09/04 03:04:54;;;;;;;3.15;2.55;;;19.80;72.30;;;;;;5156737;27;20129;-52
2021/09/04 03:07:19;;;;;;;2.72;2.42;;;19.80;72.30;;;;;;5156376;27;20045;-45
2021/09/04 03:09:45;;;;;;;2.88;2.50;;;19.80;72.30;;;;;;5156254;27;20041;-48
2021/09/04 03:12:11;;;;;;;3.28;2.88;;;19.80;72.30;;;;;;5155439;27;20080;-48
2021/09/04 03:14:38;;;;;;;3.45;2.95;;;19.80;72.30;;;;;;5156687;27;20043;-48
2021/09/04 03:17:04;;;;;;;3.25;2.90;;;19.80;72.30;;;;;;5156167;27;20047;-37
2021/09/04 03:19:30;;;;;;;2.88;2.58;;;19.80;72.30;;;;;;5135299;27;20051;-51
2021/09/04 03:21:56;;;;;;;3.85;2.80;;;19.80;72.30;;;;;;5148056;27;20038;-55
2021/09/04 03:24:21;;;;;;;3.67;2.90;;;19.80;72.30;;;;;;5156028;27;20051;-50
2021/09/04 03:26:47;;;;;;;3.63;2.90;;;19.80;72.30;;;;;;5155844;27;20125;-56
2021/09/04 03:29:13;;;;;;;3.95;2.78;;;19.80;72.30;;;;;;5155777;27;20054;-55
2021/09/04 03:31:38;;;;;;;3.78;3.28;;;19.90;72.30;;;;;;5156718;27;20125;-55
2021/09/04 03:34:04;;;;;;;3.15;2.80;;;19.80;72.30;;;;;;5155230;27;20031;-55
2021/09/04 03:36:30;;;;;;;3.20;2.60;;;19.80;72.30;;;;;;5155862;27;20487;-55
2021/09/04 03:38:55;;;;;;;2.88;2.58;;;19.80;72.30;;;;;;5156358;27;20126;-56
2021/09/04 03:41:21;;;;;;;3.28;2.70;;;19.80;72.30;;;;;;5155564;27;20094;-52
2021/09/04 03:43:46;;;;;;;2.97;2.40;;;19.80;72.30;;;;;;5155680;27;20046;-44
2021/09/04 03:46:12;;;;;;;3.45;2.65;;;19.80;72.30;;;;;;5136636;27;20478;-55
2021/09/04 03:48:38;;;;;;;2.95;2.65;;;19.80;72.30;;;;;;5155505;27;20027;-55
2021/09/04 03:51:03;;;;;;;3.00;2.60;;;19.80;72.30;;;;;;5155495;27;20459;-55
2021/09/04 03:53:32;;;;;;;3.60;2.80;;;19.80;72.30;;;;;;5155743;27;20513;-55
2021/09/04 03:55:58;;;;;;;3.63;3.08;;;19.80;73.00;;;;;;5154842;27;20402;-55
2021/09/04 03:58:23;;;;;;;3.05;2.67;;;19.80;72.30;;;;;;5137349;27;20051;-55
2021/09/04 04:00:49;;;;;;;2.85;2.42;;;19.80;72.30;;;;;;5155599;27;20035;-55
2021/09/04 04:03:15;;;;;;;3.13;2.65;;;19.80;72.30;;;;;;5155528;27;20038;-55
2021/09/04 04:05:40;;;;;;;3.53;2.70;;;19.80;72.30;;;;;;5154786;27;20035;-51
2021/09/04 04:08:06;;;;;;;4.28;3.08;;;19.80;72.30;;;;;;5155757;27;20053;-55
2021/09/04 04:10:33;;;;;;;3.30;2.88;;;19.80;72.40;;;;;;5155450;27;20397;-54
2021/09/04 04:12:58;;;;;;;3.22;2.60;;;19.80;72.40;;;;;;5154623;27;20051;-56
2021/09/04 04:15:24;;;;;;;3.42;2.50;;;19.80;72.30;;;;;;5154615;27;20398;-55
2021/09/04 04:17:50;;;;;;;3.20;2.80;;;19.80;72.30;;;;;;5155115;27;20046;-52
2021/09/04 04:20:15;;;;;;;3.40;2.70;;;19.80;72.40;;;;;;5155040;27;20089;-52
2021/09/04 04:22:41;;;;;;;2.90;2.47;;;19.80;72.30;;;;;;5155026;27;20196;-53
2021/09/04 04:25:07;;;;;;;3.90;2.45;;;19.80;72.40;;;;;;5155133;27;20465;-55
2021/09/04 04:27:33;;;;;;;2.55;2.35;;;19.80;72.30;;;;;;5154336;27;20070;-55
2021/09/04 04:29:58;;;;;;;3.05;2.45;;;19.80;72.30;;;;;;5155019;27;20066;-52
2021/09/04 04:32:24;;;;;;;3.20;2.47;;;19.80;72.30;;;;;;5154751;27;20477;-53
2021/09/04 04:34:50;;;;;;;2.63;2.42;;;19.80;72.30;;;;;;5155119;27;20042;-55
2021/09/04 04:37:15;;;;;;;2.83;2.20;;;19.80;72.30;;;;;;5154152;27;20029;-52
2021/09/04 04:39:41;;;;;;;3.70;2.88;;;19.80;72.30;;;;;;5154272;27;20081;-47
2021/09/04 04:42:07;;;;;;;3.13;2.42;;;19.80;72.30;;;;;;5154492;27;20038;-49
2021/09/04 04:44:32;;;;;;;2.80;2.35;;;19.80;72.30;;;;;;5154582;27;20038;-54
2021/09/04 04:46:58;;;;;;;4.03;2.85;;;19.80;72.30;;;;;;5153570;27;20046;-54
2021/09/04 04:49:23;;;;;;;3.35;2.30;;;19.80;72.30;;;;;;5153800;27;20099;-54
2021/09/04 04:51:49;;;;;;;3.80;2.40;;;19.80;72.30;;;;;;5154028;27;20042;-43
2021/09/04 04:54:14;;;;;;;2.72;2.38;;;19.80;72.30;;;;;;5153311;27;20489;-55
2021/09/04 04:56:40;;;;;;;3.35;2.47;;;19.80;72.30;;;;;;5154923;27;20111;-52
2021/09/04 04:59:06;;;;;;;2.85;2.25;;;19.80;72.30;;;;;;5154598;27;20398;-51
2021/09/04 05:01:31;;;;;;;3.55;2.55;;;19.80;72.30;;;;;;5154353;27;20042;-51
2021/09/04 05:03:57;;;;;;;2.47;2.10;;;19.80;72.30;;;;;;5135172;27;20039;-45
2021/09/04 05:06:22;;;;;;;2.65;2.40;;;19.80;72.30;;;;;;5154925;27;20049;-45
2021/09/04 05:08:48;;;;;;;2.83;2.40;;;19.80;72.30;;;;;;5153819;27;20462;-44
2021/09/04 05:11:14;;;;;;;2.78;2.50;;;19.80;72.30;;;;;;5152840;27;20042;-47
2021/09/04 05:13:39;;;;;;;3.10;2.20;;;19.80;72.30;;;;;;5154272;27;20042;-46
2021/09/04 05:16:05;;;;;;;2.95;2.55;;;19.80;72.30;;;;;;5153758;27;20133;-36
2021/09/04 05:18:31;;;;;;;2.92;2.40;;;19.80;72.30;;;;;;5153636;27;20051;-47
2021/09/04 05:20:56;;;;;;;3.03;2.55;;;19.80;72.30;;;;;;5153888;27;20110;-55
2021/09/04 05:23:22;;;;;;;3.50;2.90;;;19.80;72.30;;;;;;5154310;27;20031;-52
2021/09/04 05:25:47;;;;;;;2.95;2.53;;;19.80;72.30;;;;;;5152799;27;20183;-47
2021/09/04 05:28:13;;;;;;;2.72;2.15;;;19.80;72.30;;;;;;5154390;27;20043;-51
2021/09/04 05:30:39;;;;;;;2.80;2.40;;;19.80;72.30;;;;;;5153453;27;20042;-52
2021/09/04 05:33:04;;;;;;;2.80;2.28;;;19.80;72.30;;;;;;5154155;27;20031;-52
2021/09/04 05:35:30;;;;;;;2.85;2.30;;;19.70;72.20;;;;;;5135402;27;20394;-51
2021/09/04 05:37:56;;;;;;;2.55;2.17;;;19.80;72.30;;;;;;5153744;27;20047;-55
2021/09/04 05:40:21;;;;;;;3.00;2.40;;;19.80;72.90;;;;;;5152361;27;20053;-52
2021/09/04 05:42:47;;;;;;;3.45;2.70;;;19.80;72.30;;;;;;5153579;27;20035;-49
2021/09/04 05:45:13;;;;;;;2.85;2.47;;;19.80;72.30;;;;;;5153263;27;20478;-54
2021/09/04 05:47:39;;;;;;;2.60;2.20;;;19.80;72.30;;;;;;5153241;27;20075;-51
2021/09/04 05:50:05;;;;;;;3.25;2.45;;;19.70;72.20;;;;;;5153553;27;20038;-54
2021/09/04 05:52:31;;;;;;;2.75;2.10;;;19.80;72.30;;;;;;5153235;27;20405;-55
2021/09/04 05:54:56;;;;;;;3.10;2.20;;;19.80;72.30;;;;;;5153249;27;20038;-54
2021/09/04 05:57:22;;;;;;;2.42;2.17;;;19.70;72.30;;;;;;5152587;27;20042;-55
2021/09/04 05:59:48;;;;;;;3.58;2.60;;;19.70;72.20;;;;;;5153655;27;20034;-55
2021/09/04 06:02:13;;;;;;;2.42;2.22;;;19.80;72.30;;;;;;5152530;27;20090;-51
2021/09/04 06:04:39;;;;;;;3.17;2.83;;;19.70;72.30;;;;;;5153328;27;20509;-49
2021/09/04 06:07:05;;;;;;;3.05;2.53;;;19.80;72.30;;;;;;5153231;27;20042;-53
2021/09/04 06:09:31;;;;;;;3.05;2.40;;;19.70;72.30;;;;;;5153177;27;20505;-54
2021/09/04 06:11:56;;;;;;;2.55;2.22;;;19.80;72.30;;;;;;5133397;27;20042;-48
2021/09/04 06:14:22;;;;;;;2.60;2.10;;;19.80;72.30;;;;;;5153075;27;20038;-55
2021/09/04 06:16:48;;;;;;;3.13;2.60;;;19.70;72.30;;;;;;5152589;27;20498;-49
2021/09/04 06:19:13;;;;;;;2.03;1.83;;;19.70;72.30;;;;;;5153054;27;20202;-55
2021/09/04 06:21:40;;;;;;;3.17;2.05;;;19.70;72.30;;;;;;5134280;27;20043;-55
2021/09/04 06:24:06;;;;;;;3.10;2.58;;;19.70;72.30;;;;;;5152703;27;20081;-51
2021/09/04 06:26:31;;;;;;;3.40;2.60;;;19.70;72.30;;;;;;5134351;27;20047;-54
2021/09/04 06:28:57;;;;;;;2.85;2.25;;;19.70;72.30;;;;;;5152555;27;20100;-53
2021/09/04 06:31:23;;;;;;;2.85;2.20;;;19.70;72.30;;;;;;5152988;27;20051;-55
2021/09/04 06:33:48;;;;;;;2.80;2.17;;;19.70;72.30;;;;;;5152275;27;20103;-54
2021/09/04 06:36:14;;;;;;;2.53;2.30;;;19.70;72.30;;;;;;5153009;27;20046;-54
2021/09/04 06:38:40;;;;;;;2.97;2.30;;;19.70;72.30;;;;;;5153480;27;20054;-51
2021/09/04 06:41:05;;;;;;;2.38;2.17;;;19.70;72.30;;;;;;5153007;27;20607;-55
2021/09/04 06:43:31;;;;;;;3.17;2.47;;;19.70;72.30;;;;;;5133874;27;20516;-51
2021/09/04 06:45:57;;;;;;;2.95;2.30;;;19.70;72.20;;;;;;5152664;27;20047;-55
2021/09/04 06:48:22;;;;;;;2.53;2.08;;;19.80;72.30;;;;;;5152131;27;20035;-49
2021/09/04 06:50:48;;;;;;;2.80;2.05;;;19.80;72.30;;;;;;5153157;27;20045;-55
2021/09/04 06:53:13;;;;;;;2.58;2.30;;;19.70;72.30;;;;;;5153066;27;20510;-50
2021/09/04 06:55:39;;;;;;;2.50;2.30;;;19.80;72.40;;;;;;5153051;27;20042;-54
2021/09/04 06:58:05;;;;;;;2.60;2.38;;;19.70;72.20;;;;;;5152986;27;20042;-39
2021/09/04 07:00:30;;;;;;;2.25;2.00;;;19.70;72.30;;;;;;5152340;27;20110;-54
2021/09/04 07:02:56;;;;;;;3.05;2.03;;;19.70;72.20;;;;;;5152262;27;20099;-55
2021/09/04 07:05:22;;;;;;;2.75;2.10;;;19.70;72.20;;;;;;5152360;27;20096;-53
2021/09/04 07:07:47;;;;;;;2.40;2.20;;;19.70;72.20;;;;;;5152714;27;20526;-55
2021/09/04 07:10:13;;;;;;;2.40;2.15;;;19.70;72.20;;;;;;5155617;27;20420;-55
2021/09/04 07:12:39;;;;;;;2.97;2.22;;;19.70;72.20;;;;;;5155979;27;20039;-45
2021/09/04 07:15:05;;;;;;;2.67;2.13;;;19.70;72.20;;;;;;5155958;27;20121;-54
2021/09/04 07:17:31;;;;;;;2.08;1.88;;;19.80;72.90;;;;;;5156255;27;20049;-52
2021/09/04 07:19:57;;;;;;;2.65;2.22;;;19.80;72.30;;;;;;5156699;27;20046;-50
2021/09/04 07:22:22;;;;;;;3.35;2.13;;;19.80;72.30;;;;;;5156601;27;20053;-54
2021/09/04 07:24:48;;;;;;;2.47;2.00;;;19.70;72.20;;;;;;5156787;27;20042;-48
2021/09/04 07:27:13;;;;;;;2.97;2.30;;;19.70;72.20;;;;;;5156070;27;20469;-47
2021/09/04 07:29:39;;;;;;;2.70;2.20;;;19.70;72.20;;;;;;5156472;27;20156;-50
2021/09/04 07:32:05;;;;;;;2.35;1.85;;;19.80;72.20;;;;;;5155680;27;20475;-52
2021/09/04 07:34:31;;;;;;;2.70;2.30;;;19.80;72.30;;;;;;5156100;27;20153;-52
2021/09/04 07:36:56;;;;;;;2.35;2.00;;;19.70;72.20;;;;;;5136787;27;20049;-52
2021/09/04 07:39:22;;;;;;;2.28;1.92;;;19.70;72.20;;;;;;5156258;27;20042;-44
2021/09/04 07:41:48;;;;;;;2.90;2.30;;;19.70;72.80;;;;;;5156446;27;20054;-52
2021/09/04 07:44:13;;;;;;;2.10;1.70;;;19.70;72.20;;;;;;5156142;27;20504;-49
2021/09/04 07:46:39;;;;;;;2.42;2.20;;;19.70;72.20;;;;;;5155212;27;20063;-49
2021/09/04 07:49:04;;;;;;;2.28;1.98;;;19.70;72.20;;;;;;5155865;27;20043;-43
2021/09/04 07:51:30;;;;;;;2.90;2.30;;;19.70;72.10;;;;;;5155615;27;20550;-51
2021/09/04 07:53:56;;;;;;;2.00;1.75;;;19.70;72.20;;;;;;5155307;27;20492;-36
2021/09/04 07:56:21;;;;;;;2.45;2.00;;;19.70;72.10;;;;;;5155652;27;20070;-47
2021/09/04 07:58:47;;;;;;;2.03;1.83;;;19.70;72.10;;;;;;5156014;27;20528;-48
2021/09/04 08:01:13;;;;;;;2.35;1.98;;;19.80;72.20;;;;;;5156274;27;20509;-51
2021/09/04 08:03:38;;;;;;;3.00;1.90;;;19.80;72.20;;;;;;5155354;27;20045;-51
2021/09/04 08:06:05;;;;;;;2.38;2.00;;;19.70;72.10;;;;;;5155555;27;20489;-46
2021/09/04 08:08:31;;;;;;;3.00;2.15;;;19.70;72.10;;;;;;5155095;27;20035;-42
2021/09/04 08:10:57;;;;;;;3.45;2.20;;;19.70;72.10;;;;;;5155707;27;20045;-46
2021/09/04 08:13:24;;;;;;;2.50;1.95;;;19.80;72.20;;;;;;5155203;27;20043;-42
2021/09/04 08:15:51;;;;;;;2.85;2.13;;;19.80;72.20;;;;;;5136266;27;20187;-55
2021/09/04 08:18:16;;;;;;;3.00;2.03;;;19.80;72.10;;;;;;5154597;27;20050;-47
2021/09/04 08:20:43;;;;;;;2.25;1.83;;;19.70;72.10;;;;;;5155253;27;20129;-47
2021/09/04 08:23:09;;;;;;;2.47;1.90;;;19.80;72.10;;;;;;5155026;27;20137;-49
2021/09/04 08:25:36;;;;;;;2.40;2.10;;;19.80;72.10;;;;;;5156854;27;20403;-50
2021/09/04 08:28:06;;;;;;;2.15;1.88;;;19.80;72.10;;;;;;5136866;27;20077;-42
2021/09/04 08:30:32;;;;;;;3.63;2.10;;;19.80;72.10;;;;;;5155244;27;20402;-42
2021/09/04 08:32:58;;;;;;;4.22;2.30;;;19.80;71.60;;;;;;5144527;27;20525;-40
2021/09/04 08:35:23;;;;;;;3.92;2.38;;;19.80;71.30;;;;;;5147558;27;20049;-43
2021/09/04 08:37:52;;;;;;;3.40;2.20;;;19.70;71.10;;;;;;5153546;27;20547;-45
2021/09/04 08:40:19;;;;;;;5.75;2.50;;;19.70;71.00;;;;;;5154085;27;20042;-43
2021/09/04 08:42:45;;;;;;;3.80;2.05;;;19.70;70.90;;;;;;5154150;27;20569;-44
2021/09/04 08:45:10;;;;;;;3.05;1.95;;;19.70;70.80;;;;;;5154213;27;20118;-46
2021/09/04 08:47:37;;;;;;;3.97;2.28;;;19.70;71.30;;;;;;5154224;27;20129;-49
2021/09/04 08:50:04;;;;;;;4.03;2.38;;;19.70;70.50;;;;;;5153446;27;20074;-40
2021/09/04 08:52:29;;;;;;;3.70;2.10;;;19.70;70.40;;;;;;5153430;27;20049;-43
2021/09/04 08:54:55;;;;;;;5.50;2.40;;;19.70;70.40;;;;;;5134305;27;20043;-45
2021/09/04 08:57:21;;;;;;;4.90;2.58;;;19.70;70.00;;;;;;5154063;27;20049;-47
2021/09/04 08:59:50;;;;;;;3.45;2.65;;;19.70;69.90;;;;;;5153985;27;20065;-46
2021/09/04 09:02:16;;;;;;;4.13;2.25;;;19.70;69.80;;;;;;5150787;27;20137;-48
2021/09/04 09:04:43;;;;;;;7.40;2.88;;;19.70;69.80;;;;;;5153565;27;20043;-46
2021/09/04 09:07:09;;;;;;;3.13;2.50;;;19.70;69.80;;;;;;5153134;27;20090;-51
2021/09/04 09:09:36;;;;;;;4.13;2.30;;;19.70;69.90;;;;;;5135077;27;20114;-46
2021/09/04 09:12:11;;;;;;;2.90;2.40;;;19.70;69.90;;;;;;5152488;27;20039;-50
2021/09/04 09:14:55;;;;;;;3.45;2.42;;;19.70;70.00;;;;;;5153630;27;20039;-53
2021/09/04 09:17:24;;;;;;;3.92;2.47;;;19.70;70.10;;;;;;5152806;27;20042;-49
2021/09/04 09:19:54;;;;;;;3.85;2.20;;;19.70;70.10;;;;;;5133937;27;20051;-50
2021/09/04 09:22:19;;;;;;;3.35;2.67;;;19.70;70.20;;;;;;5151142;27;20168;-52
2021/09/04 09:24:45;;;;;;;3.10;2.15;;;19.70;70.30;;;;;;5147078;27;20136;-52
2021/09/04 09:27:14;;;;;;;2.90;2.10;;;19.70;70.30;;;;;;5132205;27;20082;-50
2021/09/04 09:29:47;;;;;;;2.80;2.20;;;19.60;70.30;;;;;;5146192;27;20045;-40
2021/09/04 09:32:13;;;;;;;3.38;2.33;;;19.70;70.40;;;;;;5153751;27;20035;-47
2021/09/04 09:34:44;;;;;;;3.25;2.25;;;19.70;70.50;;;;;;5133881;27;20125;-51
2021/09/04 09:37:13;;;;;;;3.35;2.42;;;19.70;70.50;;;;;;5153659;27;20038;-50
2021/09/04 09:39:44;;;;;;;2.97;2.40;;;19.80;70.60;;;;;;5135087;27;20043;-54
2021/09/04 09:42:13;;;;;;;3.30;2.40;;;19.80;70.70;;;;;;5153743;27;20045;-52
2021/09/04 09:44:40;;;;;;;3.63;2.30;;;19.80;70.70;;;;;;5135490;27;20473;-49
2021/09/04 09:47:08;;;;;;;3.42;2.13;;;19.80;70.80;;;;;;5110432;27;20512;-43
2021/09/04 09:49:40;;;;;;;3.15;2.10;;;19.80;70.80;;;;;;5144411;27;20039;-44
2021/09/04 09:52:10;;;;;;;4.38;2.40;;;19.80;70.80;;;;;;5153101;27;20042;-48
2021/09/04 09:54:37;;;;;;;2.70;2.22;;;19.80;70.90;;;;;;5140675;27;20129;-47
2021/09/04 09:57:05;;;;;;;3.97;2.40;;;19.80;70.90;;;;;;5144854;27;20035;-46
2021/09/04 09:59:32;;;;;;;5.03;2.50;;;19.80;71.00;;;;;;5152212;27;20045;-46
2021/09/04 10:02:06;;;;;;;2.60;2.15;;;19.80;71.00;;;;;;5151671;27;20103;-45
2021/09/04 10:04:37;;;;;;;4.13;2.60;;;19.80;71.00;;;;;;5151343;27;20034;-42
2021/09/04 10:07:07;;;;;;;3.33;2.17;;;19.80;71.00;;;;;;5152519;27;20078;-47
2021/09/04 10:09:33;;;;;;;3.30;2.03;;;19.80;71.00;;;;;;5150519;27;20676;-41
2021/09/04 10:11:59;;;;;;;4.05;2.28;;;19.80;71.00;;;;;;5153085;27;20031;-43
2021/09/04 10:14:25;;;;;;;2.85;2.00;;;19.80;71.00;;;;;;5152399;27;20042;-40
2021/09/04 10:16:56;;;;;;;2.70;2.30;;;19.80;71.10;;;;;;5151338;27;20050;-45
2021/09/04 10:19:25;;;;;;;2.58;2.17;;;19.80;71.10;;;;;;5131602;28;20050;-45
2021/09/04 10:21:59;;;;;;;3.67;2.25;;;19.80;71.10;;;;;;5140693;27;20035;-50
2021/09/04 10:24:53;;;;;;;3.38;2.55;;;19.80;71.10;;;;;;5151205;27;20524;-42
2021/09/04 10:27:35;;;;;;;3.20;2.20;;;19.90;71.10;;;;;;5129923;27;20058;-40
2021/09/04 10:30:28;;;;;;;4.70;2.38;;;19.90;71.10;;;;;;5139979;27;20145;-48
2021/09/04 10:33:05;;;;;;;3.25;2.10;;;19.90;71.10;;;;;;5132004;28;20039;-47
2021/09/04 10:35:40;;;;;;;4.25;2.65;;;19.90;71.10;;;;;;5148444;27;20056;-43
2021/09/04 10:38:28;;;;;;;2.58;2.20;;;19.90;71.10;;;;;;5150800;27;20431;-40
2021/09/04 10:41:05;;;;;;;4.43;2.30;;;19.90;71.10;;;;;;5131483;28;20043;-41
2021/09/04 10:43:32;;;;;;;3.72;2.78;;;19.90;71.10;;;;;;5131230;27;20403;-45
2021/09/04 10:46:00;;;;;;;3.00;2.28;;;19.90;71.10;;;;;;5153830;27;20043;-43
2021/09/04 10:48:36;;;;;;;5.05;2.40;;;19.90;71.10;;;;;;5155735;27;20398;-45
2021/09/04 10:51:09;;;;;;;3.50;2.30;;;19.90;71.10;;;;;;5156363;27;20470;-46
2021/09/04 10:53:44;;;;;;;4.38;2.35;;;20.00;71.10;;;;;;5155789;27;20039;-42
2021/09/04 10:56:17;;;;;;;3.58;2.53;;;19.90;71.10;;;;;;5155046;27;20091;-46
2021/09/04 10:58:42;;;;;;;3.30;2.22;;;19.90;71.10;;;;;;5155821;27;20043;-49
2021/09/04 11:01:10;;;;;;;4.25;2.90;;;20.00;71.10;;;;;;5154863;27;20172;-38
2021/09/04 11:03:41;;;;;;;3.83;2.40;;;20.00;71.10;;;;;;5156269;27;20053;-35
2021/09/04 11:06:07;;;;;;;3.03;2.22;;;20.00;71.10;;;;;;5155071;27;20047;-39
2021/09/04 11:08:43;;;;;;;3.83;2.47;;;20.00;71.10;;;;;;5136608;27;20055;-48
2021/09/04 11:11:17;;;;;;;2.85;2.35;;;20.00;71.10;;;;;;5155125;27;20042;-39
2021/09/04 11:13:50;;;;;;;2.90;2.28;;;20.00;71.10;;;;;;5155655;27;20038;-49
2021/09/04 11:16:31;;;;;;;2.78;2.35;;;20.00;71.10;;;;;;5155271;27;20038;-47
2021/09/04 11:19:01;;;;;;;2.88;2.20;;;20.00;71.70;;;;;;5155527;27;20081;-52
2021/09/04 11:21:27;;;;;;;2.90;2.30;;;20.00;71.10;;;;;;5149810;27;20131;-49
2021/09/04 11:23:53;;;;;;;4.03;2.15;;;20.10;71.10;;;;;;5143245;27;20092;-48
2021/09/04 11:26:19;;;;;;;2.97;2.20;;;20.10;71.10;;;;;;5154079;27;20129;-43
2021/09/04 11:28:56;;;;;;;4.22;2.60;;;20.10;71.10;;;;;;5154940;27;20133;-45
2021/09/04 11:31:23;;;;;;;4.15;2.40;;;20.10;71.00;;;;;;5154987;27;20352;-46
2021/09/04 11:33:53;;;;;;;2.72;2.00;;;20.10;71.00;;;;;;5116078;27;20116;-45
2021/09/04 11:36:44;;;;;;;3.75;2.67;;;20.10;71.00;;;;;;5139243;27;20042;-45
2021/09/04 11:39:10;;;;;;;3.42;2.10;;;20.10;71.00;;;;;;5150941;27;20051;-48
2021/09/04 11:41:45;;;;;;;3.42;2.33;;;20.20;71.00;;;;;;5155766;27;20065;-48
2021/09/04 11:44:11;;;;;;;4.25;2.25;;;20.10;71.00;;;;;;5134818;27;20454;-46
2021/09/04 11:46:37;;;;;;;3.50;2.55;;;20.20;71.70;;;;;;5155940;27;20107;-49
2021/09/04 11:49:03;;;;;;;2.72;2.15;;;20.20;71.00;;;;;;5155511;27;20093;-46
2021/09/04 11:51:28;;;;;;;3.08;2.30;;;20.20;70.90;;;;;;5154264;27;20066;-48
2021/09/04 11:53:59;;;;;;;3.10;2.30;;;20.20;70.90;;;;;;5155325;27;20034;-47
2021/09/04 11:56:24;;;;;;;4.18;2.40;;;20.20;70.80;;;;;;5154579;27;20482;-45
2021/09/04 11:58:50;;;;;;;3.22;2.20;;;20.20;70.80;;;;;;5154292;27;20078;-44
2021/09/04 12:01:19;;;;;;;2.67;2.20;;;20.20;70.80;;;;;;5155354;27;20089;-43
2021/09/04 12:03:45;;;;;;;2.50;2.20;;;20.20;70.80;;;;;;5135984;27;20066;-43
2021/09/04 12:06:10;;;;;;;2.20;1.73;;;20.30;70.90;;;;;;5154558;27;20050;-44
2021/09/04 12:08:37;;;;;;;2.90;2.30;;;20.30;70.80;;;;;;5155048;27;20061;-41
2021/09/04 12:11:07;;;;;;;3.00;2.08;;;20.30;70.80;;;;;;5154857;27;20137;-46
2021/09/04 12:13:33;;;;;;;3.55;2.20;;;20.30;70.80;;;;;;5152555;27;20035;-41
2021/09/04 12:16:02;;;;;;;2.67;2.03;;;20.30;70.70;;;;;;5154419;27;20042;-40
2021/09/04 12:18:28;;;;;;;2.90;2.10;;;20.30;70.70;;;;;;5154452;27;20051;-45
2021/09/04 12:20:55;;;;;;;3.80;2.28;;;20.30;70.70;;;;;;5153356;27;20097;-46
2021/09/04 12:23:25;;;;;;;3.13;2.20;;;20.30;70.70;;;;;;5154785;27;20057;-39
2021/09/04 12:26:11;;;;;;;3.45;2.38;;;20.40;70.70;;;;;;5154714;27;20360;-45
2021/09/04 12:28:37;;;;;;;3.25;2.28;;;20.40;70.70;;;;;;5154107;27;20090;-47
2021/09/04 12:31:10;;;;;;;3.13;1.90;;;20.40;70.70;;;;;;5154351;27;20077;-43
2021/09/04 12:33:51;;;;;;;2.78;2.00;;;20.40;70.60;;;;;;5136007;27;20073;-44
2021/09/04 12:36:18;;;;;;;2.80;2.00;;;20.40;70.60;;;;;;5150838;27;20394;-42
2021/09/04 12:38:45;;;;;;;2.42;2.00;;;20.50;70.70;;;;;;5154723;27;20047;-46
2021/09/04 12:41:16;;;;;;;2.53;2.08;;;20.40;70.60;;;;;;5135251;27;20520;-48
2021/09/04 12:43:49;;;;;;;2.78;2.25;;;20.40;70.60;;;;;;5154114;27;20049;-48
2021/09/04 12:46:38;;;;;;;8.27;4.68;;;20.50;70.60;;;;;;5153829;27;20543;-36
2021/09/04 12:49:27;;;;;;;7.93;4.60;;;20.40;69.00;;;;;;5154884;27;20063;-36